sensor_id;sensor_type;location;lat;lon;timestamp;temperature;humidity
14359;DHT22;7263;49.418;11.064;2023-02-01T00:00:56;4.10;99.90
14359;DHT22;7263;49.418;11.064;2023-02-01T00:03:22;4.20;99.90
14359;DHT22;7263;49.418;11.064;2023-02-01T00:05:55;4.20;99.90
14359;DHT22;7263;49.418;11.064;2023-02-01T00:08:22;4.20;99.90
14359;DHT22;7263;49.418;11.064;2023-02-01T00:10:56;4.20;99.90
14359;DHT22;7263;49.418;11.064;2023-02-01T00:13:23;4.30;99.90
14359;DHT22;7263;49.418;11.064;2023-02-01T00:15:50;4.20;99.90
14359;DHT22;7263;49.418;11.064;2023-02-01T00:18:18;4.20;99.90
14359;DHT22;7263;49.418;11.064;2023-02-01T00:20:45;4.20;99.90
14359;DHT22;7263;49.418;11.064;2023-02-01T00:23:12;4.40;99.90
14359;DHT22;7263;49.418;11.064;2023-02-01T00:25:39;4.20;99.90
14359;DHT22;7263;49.418;11.064;2023-02-01T00:28:06;4.20;99.90
14359;DHT22;7263;49.418;11.064;2023-02-01T00:30:33;4.20;99.90
14359;DHT22;7263;49.418;11.064;2023-02-01T00:33:00;4.30;99.90
14359;DHT22;7263;49.418;11.064;2023-02-01T00:35:28;4.30;99.90
14359;DHT22;7263;49.418;11.064;2023-02-01T00:37:55;4.30;99.90
14359;DHT22;7263;49.418;11.064;2023-02-01T00:40:24;4.30;99.90
14359;DHT22;7263;49.418;11.064;2023-02-01T00:42:50;4.40;99.90
14359;DHT22;7263;49.418;11.064;2023-02-01T00:45:18;4.40;99.90
14359;DHT22;7263;49.418;11.064;2023-02-01T00:47:45;4.40;99.90
14359;DHT22;7263;49.418;11.064;2023-02-01T00:50:11;4.40;99.90
14359;DHT22;7263;49.418;11.064;2023-02-01T00:52:40;4.40;99.90
14359;DHT22;7263;49.418;11.064;2023-02-01T00:55:07;4.40;99.90
14359;DHT22;7263;49.418;11.064;2023-02-01T00:57:34;4.40;99.90
14359;DHT22;7263;49.418;11.064;2023-02-01T01:00:01;4.40;99.90
14359;DHT22;7263;49.418;11.064;2023-02-01T01:02:27;4.40;99.90
14359;DHT22;7263;49.418;11.064;2023-02-01T01:04:54;4.40;99.90
14359;DHT22;7263;49.418;11.064;2023-02-01T01:07:21;4.40;99.90
14359;DHT22;7263;49.418;11.064;2023-02-01T01:09:49;4.40;99.90
14359;DHT22;7263;49.418;11.064;2023-02-01T01:12:16;4.50;99.90
14359;DHT22;7263;49.418;11.064;2023-02-01T01:14:45;4.40;99.90
14359;DHT22;7263;49.418;11.064;2023-02-01T01:17:12;4.40;99.90
14359;DHT22;7263;49.418;11.064;2023-02-01T01:19:39;4.40;99.90
14359;DHT22;7263;49.418;11.064;2023-02-01T01:22:07;4.40;99.90
14359;DHT22;7263;49.418;11.064;2023-02-01T01:24:34;4.40;99.90
14359;DHT22;7263;49.418;11.064;2023-02-01T01:27:02;4.40;99.90
14359;DHT22;7263;49.418;11.064;2023-02-01T01:29:29;4.40;99.90
14359;DHT22;7263;49.418;11.064;2023-02-01T01:31:55;4.40;99.90
14359;DHT22;7263;49.418;11.064;2023-02-01T01:34:22;4.30;99.90
14359;DHT22;7263;49.418;11.064;2023-02-01T01:36:49;4.30;99.90
14359;DHT22;7263;49.418;11.064;2023-02-01T01:39:16;4.20;99.90
14359;DHT22;7263;49.418;11.064;2023-02-01T01:41:42;4.20;99.90
14359;DHT22;7263;49.418;11.064;2023-02-01T01:47:11;4.10;99.90
14359;DHT22;7263;49.418;11.064;2023-02-01T01:49:38;4.00;99.90
14359;DHT22;7263;49.418;11.064;2023-02-01T01:52:05;4.00;99.90
14359;DHT22;7263;49.418;11.064;2023-02-01T01:54:34;4.00;99.90
14359;DHT22;7263;49.418;11.064;2023-02-01T01:57:03;4.00;99.90
14359;DHT22;7263;49.418;11.064;2023-02-01T01:59:31;4.00;99.90
14359;DHT22;7263;49.418;11.064;2023-02-01T02:01:58;4.00;99.90
14359;DHT22;7263;49.418;11.064;2023-02-01T02:04:34;3.90;99.90
14359;DHT22;7263;49.418;11.064;2023-02-01T02:07:04;3.90;99.90
14359;DHT22;7263;49.418;11.064;2023-02-01T02:09:32;4.00;99.90
14359;DHT22;7263;49.418;11.064;2023-02-01T02:11:59;4.00;99.90
14359;DHT22;7263;49.418;11.064;2023-02-01T02:14:26;4.00;99.90
14359;DHT22;7263;49.418;11.064;2023-02-01T02:17:03;4.00;99.90
14359;DHT22;7263;49.418;11.064;2023-02-01T02:20:12;4.00;99.90
14359;DHT22;7263;49.418;11.064;2023-02-01T02:23:12;4.00;99.90
14359;DHT22;7263;49.418;11.064;2023-02-01T02:32:17;4.10;99.90
14359;DHT22;7263;49.418;11.064;2023-02-01T02:34:52;4.00;99.90
14359;DHT22;7263;49.418;11.064;2023-02-01T02:37:26;4.10;99.90
14359;DHT22;7263;49.418;11.064;2023-02-01T02:40:04;4.10;99.90
14359;DHT22;7263;49.418;11.064;2023-02-01T02:42:38;4.10;99.90
14359;DHT22;7263;49.418;11.064;2023-02-01T02:45:27;4.10;99.90
14359;DHT22;7263;49.418;11.064;2023-02-01T02:48:17;4.00;99.90
14359;DHT22;7263;49.418;11.064;2023-02-01T02:50:49;4.10;99.90
14359;DHT22;7263;49.418;11.064;2023-02-01T02:53:40;4.00;99.90
14359;DHT22;7263;49.418;11.064;2023-02-01T02:56:27;4.00;99.90
14359;DHT22;7263;49.418;11.064;2023-02-01T02:59:14;4.00;99.90
14359;DHT22;7263;49.418;11.064;2023-02-01T03:01:59;4.00;99.90
14359;DHT22;7263;49.418;11.064;2023-02-01T03:04:44;4.00;99.90
14359;DHT22;7263;49.418;11.064;2023-02-01T03:07:15;4.00;99.90
14359;DHT22;7263;49.418;11.064;2023-02-01T03:09:45;4.00;99.90
14359;DHT22;7263;49.418;11.064;2023-02-01T03:12:15;4.10;99.90
14359;DHT22;7263;49.418;11.064;2023-02-01T03:15:03;4.10;99.90
14359;DHT22;7263;49.418;11.064;2023-02-01T03:17:35;4.10;99.90
14359;DHT22;7263;49.418;11.064;2023-02-01T03:20:06;4.10;99.90
14359;DHT22;7263;49.418;11.064;2023-02-01T03:22:36;4.00;99.90
14359;DHT22;7263;49.418;11.064;2023-02-01T03:25:06;4.00;99.90
14359;DHT22;7263;49.418;11.064;2023-02-01T03:27:37;4.00;99.90
14359;DHT22;7263;49.418;11.064;2023-02-01T03:30:11;4.00;99.90
14359;DHT22;7263;49.418;11.064;2023-02-01T03:32:44;4.00;99.90
14359;DHT22;7263;49.418;11.064;2023-02-01T03:35:28;4.00;99.90
14359;DHT22;7263;49.418;11.064;2023-02-01T03:38:02;4.00;99.90
14359;DHT22;7263;49.418;11.064;2023-02-01T03:40:33;4.00;99.90
14359;DHT22;7263;49.418;11.064;2023-02-01T03:43:04;4.00;99.90
14359;DHT22;7263;49.418;11.064;2023-02-01T03:45:35;4.10;99.90
14359;DHT22;7263;49.418;11.064;2023-02-01T03:48:06;4.10;99.90
14359;DHT22;7263;49.418;11.064;2023-02-01T03:50:35;4.10;99.90
14359;DHT22;7263;49.418;11.064;2023-02-01T03:53:07;4.10;99.90
14359;DHT22;7263;49.418;11.064;2023-02-01T03:55:36;4.10;99.90
14359;DHT22;7263;49.418;11.064;2023-02-01T03:58:07;4.10;99.90
14359;DHT22;7263;49.418;11.064;2023-02-01T04:00:34;4.20;99.90
14359;DHT22;7263;49.418;11.064;2023-02-01T04:03:02;4.20;99.90
14359;DHT22;7263;49.418;11.064;2023-02-01T04:05:30;4.20;99.90
14359;DHT22;7263;49.418;11.064;2023-02-01T04:07:57;4.20;99.90
14359;DHT22;7263;49.418;11.064;2023-02-01T04:10:25;4.20;99.90
14359;DHT22;7263;49.418;11.064;2023-02-01T04:12:52;4.20;99.90
14359;DHT22;7263;49.418;11.064;2023-02-01T04:15:19;4.20;99.90
14359;DHT22;7263;49.418;11.064;2023-02-01T04:17:46;4.20;99.90
14359;DHT22;7263;49.418;11.064;2023-02-01T04:20:13;4.30;99.90
14359;DHT22;7263;49.418;11.064;2023-02-01T04:22:40;4.30;99.90
14359;DHT22;7263;49.418;11.064;2023-02-01T04:25:07;4.50;99.90
14359;DHT22;7263;49.418;11.064;2023-02-01T04:27:36;4.30;99.90
14359;DHT22;7263;49.418;11.064;2023-02-01T04:30:03;4.30;99.90
14359;DHT22;7263;49.418;11.064;2023-02-01T04:32:30;4.30;99.90
14359;DHT22;7263;49.418;11.064;2023-02-01T04:34:57;4.30;99.90
14359;DHT22;7263;49.418;11.064;2023-02-01T04:37:23;4.30;99.90
14359;DHT22;7263;49.418;11.064;2023-02-01T04:39:50;4.30;99.90
14359;DHT22;7263;49.418;11.064;2023-02-01T04:42:17;4.30;99.90
14359;DHT22;7263;49.418;11.064;2023-02-01T04:44:45;4.30;99.90
14359;DHT22;7263;49.418;11.064;2023-02-01T04:47:12;4.30;99.90
14359;DHT22;7263;49.418;11.064;2023-02-01T04:49:39;4.20;99.90
14359;DHT22;7263;49.418;11.064;2023-02-01T04:52:06;4.20;99.90
14359;DHT22;7263;49.418;11.064;2023-02-01T04:54:33;4.10;99.90
14359;DHT22;7263;49.418;11.064;2023-02-01T04:57:00;4.00;99.90
14359;DHT22;7263;49.418;11.064;2023-02-01T04:59:27;4.00;99.90
14359;DHT22;7263;49.418;11.064;2023-02-01T05:01:55;3.90;99.90
14359;DHT22;7263;49.418;11.064;2023-02-01T05:04:22;3.90;99.90
14359;DHT22;7263;49.418;11.064;2023-02-01T05:06:49;3.80;99.90
14359;DHT22;7263;49.418;11.064;2023-02-01T05:09:16;3.80;99.90
14359;DHT22;7263;49.418;11.064;2023-02-01T05:11:42;3.80;99.90
14359;DHT22;7263;49.418;11.064;2023-02-01T05:14:27;3.80;99.90
14359;DHT22;7263;49.418;11.064;2023-02-01T05:16:53;3.70;99.90
14359;DHT22;7263;49.418;11.064;2023-02-01T05:19:22;3.80;99.90
14359;DHT22;7263;49.418;11.064;2023-02-01T05:21:48;3.80;99.90
14359;DHT22;7263;49.418;11.064;2023-02-01T05:24:15;6.70;99.90
14359;DHT22;7263;49.418;11.064;2023-02-01T05:26:45;3.70;99.90
14359;DHT22;7263;49.418;11.064;2023-02-01T05:29:13;3.70;99.90
14359;DHT22;7263;49.418;11.064;2023-02-01T05:31:40;3.70;99.90
14359;DHT22;7263;49.418;11.064;2023-02-01T05:34:07;3.70;99.90
14359;DHT22;7263;49.418;11.064;2023-02-01T05:36:35;3.70;99.90
14359;DHT22;7263;49.418;11.064;2023-02-01T05:39:02;3.70;99.90
14359;DHT22;7263;49.418;11.064;2023-02-01T05:41:29;3.70;99.90
14359;DHT22;7263;49.418;11.064;2023-02-01T05:43:56;3.70;99.90
14359;DHT22;7263;49.418;11.064;2023-02-01T05:46:23;3.70;99.90
14359;DHT22;7263;49.418;11.064;2023-02-01T05:48:50;3.70;99.90
14359;DHT22;7263;49.418;11.064;2023-02-01T05:51:17;3.70;99.90
14359;DHT22;7263;49.418;11.064;2023-02-01T05:53:45;3.70;99.90
14359;DHT22;7263;49.418;11.064;2023-02-01T05:56:12;3.60;99.90
14359;DHT22;7263;49.418;11.064;2023-02-01T05:58:38;3.60;99.90
14359;DHT22;7263;49.418;11.064;2023-02-01T06:01:05;3.70;99.90
14359;DHT22;7263;49.418;11.064;2023-02-01T06:03:32;3.60;99.90
14359;DHT22;7263;49.418;11.064;2023-02-01T06:05:59;3.50;99.90
14359;DHT22;7263;49.418;11.064;2023-02-01T06:08:26;3.50;99.90
14359;DHT22;7263;49.418;11.064;2023-02-01T06:10:58;3.40;99.90
14359;DHT22;7263;49.418;11.064;2023-02-01T06:13:25;3.40;99.90
14359;DHT22;7263;49.418;11.064;2023-02-01T06:15:52;3.30;99.90
14359;DHT22;7263;49.418;11.064;2023-02-01T06:18:19;3.40;99.90
14359;DHT22;7263;49.418;11.064;2023-02-01T06:20:52;3.40;99.90
14359;DHT22;7263;49.418;11.064;2023-02-01T06:23:18;3.40;99.90
14359;DHT22;7263;49.418;11.064;2023-02-01T06:25:49;3.30;99.90
14359;DHT22;7263;49.418;11.064;2023-02-01T06:28:17;3.40;99.90
14359;DHT22;7263;49.418;11.064;2023-02-01T06:30:44;3.30;99.90
14359;DHT22;7263;49.418;11.064;2023-02-01T06:33:12;3.30;99.90
14359;DHT22;7263;49.418;11.064;2023-02-01T06:35:40;3.30;99.90
14359;DHT22;7263;49.418;11.064;2023-02-01T06:38:08;3.30;99.90
14359;DHT22;7263;49.418;11.064;2023-02-01T06:40:34;3.30;99.90
14359;DHT22;7263;49.418;11.064;2023-02-01T06:43:01;3.30;99.90
14359;DHT22;7263;49.418;11.064;2023-02-01T06:45:30;3.30;99.90
14359;DHT22;7263;49.418;11.064;2023-02-01T06:47:58;3.30;99.90
14359;DHT22;7263;49.418;11.064;2023-02-01T06:50:26;3.30;99.90
14359;DHT22;7263;49.418;11.064;2023-02-01T06:52:52;3.30;99.90
14359;DHT22;7263;49.418;11.064;2023-02-01T06:55:19;3.30;99.90
14359;DHT22;7263;49.418;11.064;2023-02-01T06:57:46;3.30;99.90
14359;DHT22;7263;49.418;11.064;2023-02-01T07:00:14;3.40;99.90
14359;DHT22;7263;49.418;11.064;2023-02-01T07:02:42;3.30;99.90
14359;DHT22;7263;49.418;11.064;2023-02-01T07:05:09;3.30;99.90
14359;DHT22;7263;49.418;11.064;2023-02-01T07:07:35;3.30;99.90
14359;DHT22;7263;49.418;11.064;2023-02-01T07:10:02;3.30;99.90
14359;DHT22;7263;49.418;11.064;2023-02-01T07:12:29;3.30;99.90
14359;DHT22;7263;49.418;11.064;2023-02-01T07:14:56;3.30;99.90
14359;DHT22;7263;49.418;11.064;2023-02-01T07:17:23;3.30;99.90
14359;DHT22;7263;49.418;11.064;2023-02-01T07:19:51;3.30;99.90
14359;DHT22;7263;49.418;11.064;2023-02-01T07:22:18;3.40;99.90
14359;DHT22;7263;49.418;11.064;2023-02-01T07:24:45;3.40;99.90
14359;DHT22;7263;49.418;11.064;2023-02-01T07:27:11;3.40;99.90
14359;DHT22;7263;49.418;11.064;2023-02-01T07:29:38;3.40;99.90
14359;DHT22;7263;49.418;11.064;2023-02-01T07:32:05;3.50;99.90
14359;DHT22;7263;49.418;11.064;2023-02-01T07:34:32;3.50;99.90
14359;DHT22;7263;49.418;11.064;2023-02-01T07:37:00;3.60;99.90
14359;DHT22;7263;49.418;11.064;2023-02-01T07:39:28;3.60;99.90
14359;DHT22;7263;49.418;11.064;2023-02-01T07:41:57;3.60;99.90
14359;DHT22;7263;49.418;11.064;2023-02-01T07:44:24;3.60;99.90
14359;DHT22;7263;49.418;11.064;2023-02-01T07:46:50;3.70;99.90
14359;DHT22;7263;49.418;11.064;2023-02-01T07:49:17;3.70;99.90
14359;DHT22;7263;49.418;11.064;2023-02-01T07:51:44;3.80;99.90
14359;DHT22;7263;49.418;11.064;2023-02-01T07:54:12;3.80;99.90
14359;DHT22;7263;49.418;11.064;2023-02-01T07:56:39;3.90;99.90
14359;DHT22;7263;49.418;11.064;2023-02-01T07:59:05;3.90;99.90
14359;DHT22;7263;49.418;11.064;2023-02-01T08:01:33;3.90;99.90
14359;DHT22;7263;49.418;11.064;2023-02-01T08:04:00;3.90;99.90
14359;DHT22;7263;49.418;11.064;2023-02-01T08:06:28;4.00;99.90
14359;DHT22;7263;49.418;11.064;2023-02-01T08:08:56;4.00;99.90
14359;DHT22;7263;49.418;11.064;2023-02-01T08:11:25;4.00;99.90
14359;DHT22;7263;49.418;11.064;2023-02-01T08:13:53;3.90;99.90
14359;DHT22;7263;49.418;11.064;2023-02-01T08:16:20;3.90;99.90
14359;DHT22;7263;49.418;11.064;2023-02-01T08:18:47;3.90;99.90
14359;DHT22;7263;49.418;11.064;2023-02-01T08:21:16;3.90;99.90
14359;DHT22;7263;49.418;11.064;2023-02-01T08:23:44;3.90;99.90
14359;DHT22;7263;49.418;11.064;2023-02-01T08:26:13;3.90;99.90
14359;DHT22;7263;49.418;11.064;2023-02-01T08:28:43;3.90;99.90
14359;DHT22;7263;49.418;11.064;2023-02-01T08:31:12;4.00;99.90
14359;DHT22;7263;49.418;11.064;2023-02-01T08:33:40;4.00;99.90
14359;DHT22;7263;49.418;11.064;2023-02-01T08:36:09;4.10;99.90
14359;DHT22;7263;49.418;11.064;2023-02-01T08:38:37;4.20;99.90
14359;DHT22;7263;49.418;11.064;2023-02-01T08:41:05;4.30;99.90
14359;DHT22;7263;49.418;11.064;2023-02-01T08:43:32;4.40;99.90
14359;DHT22;7263;49.418;11.064;2023-02-01T08:46:00;4.50;99.90
14359;DHT22;7263;49.418;11.064;2023-02-01T08:48:27;4.50;99.90
14359;DHT22;7263;49.418;11.064;2023-02-01T08:50:54;4.60;99.90
14359;DHT22;7263;49.418;11.064;2023-02-01T08:53:21;4.60;99.90
14359;DHT22;7263;49.418;11.064;2023-02-01T08:55:48;4.60;99.90
14359;DHT22;7263;49.418;11.064;2023-02-01T08:58:15;4.60;99.90
14359;DHT22;7263;49.418;11.064;2023-02-01T09:00:42;4.70;99.90
14359;DHT22;7263;49.418;11.064;2023-02-01T09:03:12;4.60;99.90
14359;DHT22;7263;49.418;11.064;2023-02-01T09:05:39;4.60;99.90
14359;DHT22;7263;49.418;11.064;2023-02-01T09:08:06;4.60;99.90
14359;DHT22;7263;49.418;11.064;2023-02-01T09:10:33;4.70;99.90
14359;DHT22;7263;49.418;11.064;2023-02-01T09:13:00;4.70;99.90
14359;DHT22;7263;49.418;11.064;2023-02-01T09:15:27;4.70;99.90
14359;DHT22;7263;49.418;11.064;2023-02-01T09:17:54;4.70;99.90
14359;DHT22;7263;49.418;11.064;2023-02-01T09:20:22;4.60;99.90
14359;DHT22;7263;49.418;11.064;2023-02-01T09:22:50;4.50;99.90
14359;DHT22;7263;49.418;11.064;2023-02-01T09:25:17;4.40;99.90
14359;DHT22;7263;49.418;11.064;2023-02-01T09:27:44;4.30;99.90
14359;DHT22;7263;49.418;11.064;2023-02-01T09:30:11;4.20;99.90
14359;DHT22;7263;49.418;11.064;2023-02-01T09:32:38;4.00;99.90
14359;DHT22;7263;49.418;11.064;2023-02-01T09:35:05;1.90;99.90
14359;DHT22;7263;49.418;11.064;2023-02-01T09:37:34;3.70;99.90
14359;DHT22;7263;49.418;11.064;2023-02-01T09:40:01;3.60;99.90
14359;DHT22;7263;49.418;11.064;2023-02-01T09:42:44;3.50;99.90
14359;DHT22;7263;49.418;11.064;2023-02-01T09:45:20;3.50;99.90
14359;DHT22;7263;49.418;11.064;2023-02-01T09:47:52;3.50;99.90
14359;DHT22;7263;49.418;11.064;2023-02-01T09:50:22;3.30;99.90
14359;DHT22;7263;49.418;11.064;2023-02-01T09:52:55;3.40;99.90
14359;DHT22;7263;49.418;11.064;2023-02-01T09:55:29;3.40;99.90
14359;DHT22;7263;49.418;11.064;2023-02-01T09:58:00;3.50;99.90
14359;DHT22;7263;49.418;11.064;2023-02-01T10:00:30;6.30;99.90
14359;DHT22;7263;49.418;11.064;2023-02-01T10:03:00;3.50;99.90
14359;DHT22;7263;49.418;11.064;2023-02-01T10:05:42;3.80;99.90
14359;DHT22;7263;49.418;11.064;2023-02-01T10:08:17;4.40;99.90
14359;DHT22;7263;49.418;11.064;2023-02-01T10:10:48;3.90;99.90
14359;DHT22;7263;49.418;11.064;2023-02-01T10:13:34;4.90;99.90
14359;DHT22;7263;49.418;11.064;2023-02-01T10:16:14;4.90;99.90
14359;DHT22;7263;49.418;11.064;2023-02-01T10:19:03;4.80;99.90
14359;DHT22;7263;49.418;11.064;2023-02-01T10:21:51;4.70;99.90
14359;DHT22;7263;49.418;11.064;2023-02-01T10:24:28;4.70;99.90
14359;DHT22;7263;49.418;11.064;2023-02-01T10:27:02;4.70;99.90
14359;DHT22;7263;49.418;11.064;2023-02-01T10:29:34;4.70;99.90
14359;DHT22;7263;49.418;11.064;2023-02-01T10:32:03;4.70;99.90
14359;DHT22;7263;49.418;11.064;2023-02-01T10:34:36;4.20;99.90
14359;DHT22;7263;49.418;11.064;2023-02-01T10:37:15;4.60;99.90
14359;DHT22;7263;49.418;11.064;2023-02-01T10:39:46;4.60;99.90
14359;DHT22;7263;49.418;11.064;2023-02-01T10:42:14;4.60;99.90
14359;DHT22;7263;49.418;11.064;2023-02-01T10:44:43;4.80;99.90
14359;DHT22;7263;49.418;11.064;2023-02-01T10:47:13;4.80;99.90
14359;DHT22;7263;49.418;11.064;2023-02-01T10:49:45;4.80;99.90
14359;DHT22;7263;49.418;11.064;2023-02-01T10:52:16;4.90;99.90
14359;DHT22;7263;49.418;11.064;2023-02-01T10:54:46;5.00;99.90
14359;DHT22;7263;49.418;11.064;2023-02-01T10:57:21;4.90;99.90
14359;DHT22;7263;49.418;11.064;2023-02-01T10:59:49;4.90;99.90
14359;DHT22;7263;49.418;11.064;2023-02-01T11:02:21;4.90;99.90
14359;DHT22;7263;49.418;11.064;2023-02-01T11:04:59;4.90;99.90
14359;DHT22;7263;49.418;11.064;2023-02-01T11:07:27;4.90;99.90
14359;DHT22;7263;49.418;11.064;2023-02-01T11:09:55;5.00;99.90
14359;DHT22;7263;49.418;11.064;2023-02-01T11:12:29;5.00;99.90
14359;DHT22;7263;49.418;11.064;2023-02-01T11:15:03;5.00;99.90
14359;DHT22;7263;49.418;11.064;2023-02-01T11:17:42;5.00;99.90
14359;DHT22;7263;49.418;11.064;2023-02-01T11:20:14;5.00;99.90
14359;DHT22;7263;49.418;11.064;2023-02-01T11:22:45;5.10;99.90
14359;DHT22;7263;49.418;11.064;2023-02-01T11:25:16;5.10;99.90
14359;DHT22;7263;49.418;11.064;2023-02-01T11:27:43;5.20;99.90
14359;DHT22;7263;49.418;11.064;2023-02-01T11:30:15;5.20;99.90
14359;DHT22;7263;49.418;11.064;2023-02-01T11:32:42;5.10;99.90
14359;DHT22;7263;49.418;11.064;2023-02-01T11:35:14;5.10;99.90
14359;DHT22;7263;49.418;11.064;2023-02-01T11:37:53;5.10;99.90
14359;DHT22;7263;49.418;11.064;2023-02-01T11:40:27;5.00;99.90
14359;DHT22;7263;49.418;11.064;2023-02-01T11:42:56;8.20;99.90
14359;DHT22;7263;49.418;11.064;2023-02-01T11:45:26;5.00;99.90
14359;DHT22;7263;49.418;11.064;2023-02-01T11:47:54;5.00;99.90
14359;DHT22;7263;49.418;11.064;2023-02-01T11:50:27;5.00;99.90
14359;DHT22;7263;49.418;11.064;2023-02-01T11:53:04;5.10;99.90
14359;DHT22;7263;49.418;11.064;2023-02-01T11:55:55;5.00;99.90
14359;DHT22;7263;49.418;11.064;2023-02-01T11:58:43;5.00;99.90
14359;DHT22;7263;49.418;11.064;2023-02-01T12:04:33;5.00;99.90
14359;DHT22;7263;49.418;11.064;2023-02-01T12:07:09;5.10;99.90
14359;DHT22;7263;49.418;11.064;2023-02-01T12:09:50;5.10;99.90
14359;DHT22;7263;49.418;11.064;2023-02-01T12:12:26;5.20;99.90
14359;DHT22;7263;49.418;11.064;2023-02-01T12:15:18;5.30;99.90
14359;DHT22;7263;49.418;11.064;2023-02-01T12:17:58;5.30;99.90
14359;DHT22;7263;49.418;11.064;2023-02-01T12:20:54;5.30;99.90
14359;DHT22;7263;49.418;11.064;2023-02-01T12:26:44;5.40;99.90
14359;DHT22;7263;49.418;11.064;2023-02-01T12:29:22;5.40;99.90
14359;DHT22;7263;49.418;11.064;2023-02-01T12:32:11;5.40;99.90
14359;DHT22;7263;49.418;11.064;2023-02-01T12:35:02;5.40;99.90
14359;DHT22;7263;49.418;11.064;2023-02-01T12:37:44;5.40;99.90
14359;DHT22;7263;49.418;11.064;2023-02-01T12:40:28;5.50;99.90
14359;DHT22;7263;49.418;11.064;2023-02-01T12:43:02;5.50;99.90
14359;DHT22;7263;49.418;11.064;2023-02-01T12:45:36;5.50;99.90
14359;DHT22;7263;49.418;11.064;2023-02-01T12:48:19;5.50;99.90
14359;DHT22;7263;49.418;11.064;2023-02-01T12:50:50;5.50;99.90
14359;DHT22;7263;49.418;11.064;2023-02-01T12:53:23;5.50;99.90
14359;DHT22;7263;49.418;11.064;2023-02-01T12:55:54;5.50;99.90
14359;DHT22;7263;49.418;11.064;2023-02-01T12:58:24;5.50;99.90
14359;DHT22;7263;49.418;11.064;2023-02-01T13:00:57;5.60;99.90
14359;DHT22;7263;49.418;11.064;2023-02-01T13:03:32;5.60;99.90
14359;DHT22;7263;49.418;11.064;2023-02-01T13:06:04;5.60;99.90
14359;DHT22;7263;49.418;11.064;2023-02-01T13:08:39;5.60;99.90
14359;DHT22;7263;49.418;11.064;2023-02-01T13:11:11;5.50;99.90
14359;DHT22;7263;49.418;11.064;2023-02-01T13:13:46;5.40;99.90
14359;DHT22;7263;49.418;11.064;2023-02-01T13:16:19;5.30;99.90
14359;DHT22;7263;49.418;11.064;2023-02-01T13:18:56;5.30;99.90
14359;DHT22;7263;49.418;11.064;2023-02-01T13:21:29;5.30;99.90
14359;DHT22;7263;49.418;11.064;2023-02-01T13:23:58;5.20;99.90
14359;DHT22;7263;49.418;11.064;2023-02-01T13:26:25;5.20;99.90
14359;DHT22;7263;49.418;11.064;2023-02-01T13:28:53;5.20;99.90
14359;DHT22;7263;49.418;11.064;2023-02-01T13:31:44;5.20;99.90
14359;DHT22;7263;49.418;11.064;2023-02-01T13:34:38;5.30;99.90
14359;DHT22;7263;49.418;11.064;2023-02-01T13:40:23;5.40;99.90
14359;DHT22;7263;49.418;11.064;2023-02-01T13:42:55;5.50;99.90
14359;DHT22;7263;49.418;11.064;2023-02-01T13:45:24;5.50;99.90
14359;DHT22;7263;49.418;11.064;2023-02-01T13:47:55;5.50;99.90
14359;DHT22;7263;49.418;11.064;2023-02-01T13:50:25;5.50;99.90
14359;DHT22;7263;49.418;11.064;2023-02-01T13:52:54;5.50;99.90
14359;DHT22;7263;49.418;11.064;2023-02-01T13:55:29;5.50;99.90
14359;DHT22;7263;49.418;11.064;2023-02-01T13:58:09;5.50;99.90
14359;DHT22;7263;49.418;11.064;2023-02-01T14:00:37;5.50;99.90
14359;DHT22;7263;49.418;11.064;2023-02-01T14:03:15;5.50;99.90
14359;DHT22;7263;49.418;11.064;2023-02-01T14:06:01;5.50;99.90
14359;DHT22;7263;49.418;11.064;2023-02-01T14:08:41;5.60;99.90
14359;DHT22;7263;49.418;11.064;2023-02-01T14:11:33;5.50;99.90
14359;DHT22;7263;49.418;11.064;2023-02-01T14:23:26;5.60;99.90
14359;DHT22;7263;49.418;11.064;2023-02-01T14:26:08;5.60;99.90
14359;DHT22;7263;49.418;11.064;2023-02-01T14:28:39;5.60;99.90
14359;DHT22;7263;49.418;11.064;2023-02-01T14:34:12;5.60;99.90
14359;DHT22;7263;49.418;11.064;2023-02-01T14:36:42;5.50;99.90
14359;DHT22;7263;49.418;11.064;2023-02-01T14:39:27;5.50;99.90
14359;DHT22;7263;49.418;11.064;2023-02-01T14:41:57;5.50;99.90
14359;DHT22;7263;49.418;11.064;2023-02-01T14:44:28;5.50;99.90
14359;DHT22;7263;49.418;11.064;2023-02-01T14:50:29;5.40;99.90
14359;DHT22;7263;49.418;11.064;2023-02-01T14:53:08;5.30;99.90
14359;DHT22;7263;49.418;11.064;2023-02-01T14:55:40;5.30;99.90
14359;DHT22;7263;49.418;11.064;2023-02-01T14:58:15;5.20;99.90
14359;DHT22;7263;49.418;11.064;2023-02-01T15:00:49;5.10;99.90
14359;DHT22;7263;49.418;11.064;2023-02-01T15:03:34;5.00;99.90
14359;DHT22;7263;49.418;11.064;2023-02-01T15:06:02;4.90;99.90
14359;DHT22;7263;49.418;11.064;2023-02-01T15:08:33;4.90;99.90
14359;DHT22;7263;49.418;11.064;2023-02-01T15:11:08;4.90;99.90
14359;DHT22;7263;49.418;11.064;2023-02-01T15:13:35;4.90;99.90
14359;DHT22;7263;49.418;11.064;2023-02-01T15:16:09;4.90;99.90
14359;DHT22;7263;49.418;11.064;2023-02-01T15:18:37;4.90;99.90
14359;DHT22;7263;49.418;11.064;2023-02-01T15:21:04;4.90;99.90
14359;DHT22;7263;49.418;11.064;2023-02-01T15:23:32;5.00;99.90
14359;DHT22;7263;49.418;11.064;2023-02-01T15:25:59;5.00;99.90
14359;DHT22;7263;49.418;11.064;2023-02-01T15:28:27;5.00;99.90
14359;DHT22;7263;49.418;11.064;2023-02-01T15:30:57;5.00;99.90
14359;DHT22;7263;49.418;11.064;2023-02-01T15:33:24;5.10;99.90
14359;DHT22;7263;49.418;11.064;2023-02-01T15:35:52;5.10;99.90
14359;DHT22;7263;49.418;11.064;2023-02-01T15:38:39;5.10;99.90
14359;DHT22;7263;49.418;11.064;2023-02-01T15:41:08;5.10;99.90
14359;DHT22;7263;49.418;11.064;2023-02-01T15:43:39;5.10;99.90
14359;DHT22;7263;49.418;11.064;2023-02-01T15:46:09;5.10;99.90
14359;DHT22;7263;49.418;11.064;2023-02-01T15:48:41;5.10;99.90
14359;DHT22;7263;49.418;11.064;2023-02-01T15:51:16;5.10;99.90
14359;DHT22;7263;49.418;11.064;2023-02-01T15:53:51;5.10;99.90
14359;DHT22;7263;49.418;11.064;2023-02-01T15:56:24;5.10;99.90
14359;DHT22;7263;49.418;11.064;2023-02-01T15:58:55;5.10;99.90
14359;DHT22;7263;49.418;11.064;2023-02-01T16:01:23;5.10;99.90
14359;DHT22;7263;49.418;11.064;2023-02-01T16:04:02;5.10;99.90
14359;DHT22;7263;49.418;11.064;2023-02-01T16:06:30;5.10;99.90
14359;DHT22;7263;49.418;11.064;2023-02-01T16:09:02;5.10;99.90
14359;DHT22;7263;49.418;11.064;2023-02-01T16:11:31;5.00;99.90
14359;DHT22;7263;49.418;11.064;2023-02-01T16:14:00;5.00;99.90
14359;DHT22;7263;49.418;11.064;2023-02-01T16:16:28;5.00;99.90
14359;DHT22;7263;49.418;11.064;2023-02-01T16:18:55;5.00;99.90
14359;DHT22;7263;49.418;11.064;2023-02-01T16:21:22;5.00;99.90
14359;DHT22;7263;49.418;11.064;2023-02-01T16:23:50;5.00;99.90
14359;DHT22;7263;49.418;11.064;2023-02-01T16:26:17;5.00;99.90
14359;DHT22;7263;49.418;11.064;2023-02-01T16:28:44;5.00;99.90
14359;DHT22;7263;49.418;11.064;2023-02-01T16:31:15;5.10;99.90
14359;DHT22;7263;49.418;11.064;2023-02-01T16:33:46;5.10;99.90
14359;DHT22;7263;49.418;11.064;2023-02-01T16:36:13;5.10;99.90
14359;DHT22;7263;49.418;11.064;2023-02-01T16:38:40;5.10;99.90
14359;DHT22;7263;49.418;11.064;2023-02-01T16:41:09;5.10;99.90
14359;DHT22;7263;49.418;11.064;2023-02-01T16:43:36;5.10;99.90